createdAt,value
2019-03-31T00:01:11.279Z,10.25
2019-03-31T00:03:44.209Z,10.30
2019-03-31T00:06:17.092Z,10.29
2019-03-31T00:08:49.993Z,10.31
2019-03-31T00:11:22.798Z,10.35
2019-03-31T00:13:55.581Z,10.43
2019-03-31T00:16:28.396Z,10.38
2019-03-31T00:19:01.454Z,10.41
2019-03-31T00:21:34.228Z,10.44
2019-03-31T00:24:07.034Z,10.46
2019-03-31T00:26:39.838Z,10.43
2019-03-31T00:29:12.750Z,10.26
2019-03-31T00:31:45.568Z,10.11
2019-03-31T00:34:18.548Z,9.94
2019-03-31T00:36:53.341Z,9.74
2019-03-31T00:39:26.184Z,9.57
2019-03-31T00:41:58.974Z,9.40
2019-03-31T00:44:32.076Z,9.24
2019-03-31T00:47:06.366Z,9.18
2019-03-31T00:49:39.222Z,9.25
2019-03-31T00:52:12.070Z,9.28
2019-03-31T00:54:44.930Z,9.29
2019-03-31T00:57:17.696Z,9.24
2019-03-31T00:59:50.494Z,9.10
2019-03-31T01:02:27.259Z,8.97
2019-03-31T01:05:00.341Z,8.86
2019-03-31T01:07:33.356Z,8.74
2019-03-31T01:10:06.872Z,8.64
2019-03-31T01:12:40.145Z,8.61
2019-03-31T01:15:17.323Z,8.57
2019-03-31T01:17:50.937Z,8.56
2019-03-31T01:20:23.773Z,8.54
2019-03-31T01:22:56.676Z,8.52
2019-03-31T01:25:29.524Z,8.58
2019-03-31T01:28:02.719Z,8.55
2019-03-31T01:30:35.761Z,8.50
2019-03-31T01:33:08.642Z,8.41
2019-03-31T01:35:41.576Z,8.47
2019-03-31T01:38:14.457Z,8.58
2019-03-31T01:40:47.287Z,8.62
2019-03-31T01:43:21.191Z,8.64
2019-03-31T01:45:54.162Z,8.63
2019-03-31T01:48:26.960Z,8.56
2019-03-31T01:50:59.883Z,8.57
2019-03-31T01:53:32.760Z,8.51
2019-03-31T01:56:06.242Z,8.57
2019-03-31T01:58:39.007Z,8.47
2019-03-31T02:01:14.203Z,8.36
2019-03-31T02:03:47.094Z,8.25
2019-03-31T02:06:19.944Z,8.18
2019-03-31T02:08:52.705Z,8.15
2019-03-31T02:11:25.806Z,8.06
2019-03-31T02:13:58.589Z,8.08
2019-03-31T02:16:32.134Z,8.06
2019-03-31T02:19:05.166Z,8.09
2019-03-31T02:21:37.972Z,8.12
2019-03-31T02:24:10.744Z,8.09
2019-03-31T02:26:43.556Z,8.09
2019-03-31T02:29:16.456Z,8.07
2019-03-31T02:31:49.351Z,8.13
2019-03-31T02:34:22.276Z,8.12
2019-03-31T02:36:55.098Z,8.06
2019-03-31T02:39:28.018Z,7.99
2019-03-31T02:42:01.585Z,7.98
2019-03-31T02:44:34.499Z,8.05
2019-03-31T02:47:07.379Z,7.97
2019-03-31T02:52:11.742Z,7.78
2019-03-31T02:54:44.876Z,7.67
2019-03-31T02:57:18.040Z,7.60
2019-03-31T02:59:53.633Z,7.51
2019-03-31T03:02:41.443Z,7.46
2019-03-31T03:05:19.006Z,7.37
2019-03-31T03:07:43.905Z,7.31
2019-03-31T03:10:16.684Z,7.24
2019-03-31T03:12:51.954Z,7.17
2019-03-31T03:15:30.514Z,7.10
2019-03-31T03:18:03.463Z,7.07
2019-03-31T03:20:36.238Z,7.14
2019-03-31T03:23:09.003Z,7.12
2019-03-31T03:25:54.825Z,7.06
2019-03-31T03:28:16.704Z,6.99
2019-03-31T03:30:49.577Z,6.95
2019-03-31T03:33:22.682Z,6.89
2019-03-31T03:35:55.624Z,6.85
2019-03-31T03:38:28.408Z,6.82
2019-03-31T03:41:01.650Z,6.79
2019-03-31T03:43:34.419Z,6.76
2019-03-31T03:46:07.202Z,6.72
2019-03-31T03:48:39.979Z,6.71
2019-03-31T03:51:12.837Z,6.78
2019-03-31T03:53:45.749Z,6.85
2019-03-31T03:56:18.515Z,6.82
2019-03-31T03:58:51.712Z,6.76
2019-03-31T04:01:27.466Z,6.70
2019-03-31T04:04:00.362Z,6.64
2019-03-31T04:06:33.251Z,6.58
2019-03-31T04:09:07.766Z,6.57
2019-03-31T04:11:40.874Z,6.55
2019-03-31T04:14:13.747Z,6.50
2019-03-31T04:16:46.492Z,6.46
2019-03-31T04:19:19.318Z,6.46
2019-03-31T04:21:52.095Z,6.42
2019-03-31T04:24:24.871Z,6.42
2019-03-31T04:26:57.779Z,6.40
2019-03-31T04:29:30.647Z,6.42
2019-03-31T04:32:03.491Z,6.55
2019-03-31T04:34:36.353Z,6.72
2019-03-31T04:37:09.266Z,6.88
2019-03-31T04:39:42.294Z,6.98
2019-03-31T04:42:15.112Z,7.08
2019-03-31T04:44:51.181Z,7.28
2019-03-31T04:47:23.944Z,7.53
2019-03-31T04:49:56.746Z,7.87
2019-03-31T04:52:29.590Z,8.26
2019-03-31T04:55:02.580Z,8.71
2019-03-31T04:57:35.337Z,9.21
2019-03-31T05:00:08.428Z,9.74
2019-03-31T05:02:41.218Z,10.35
2019-03-31T05:05:13.998Z,10.93
2019-03-31T05:07:46.837Z,11.58
2019-03-31T05:10:19.657Z,12.25
2019-03-31T05:12:53.576Z,13.01
2019-03-31T05:15:26.450Z,13.82
2019-03-31T05:17:59.260Z,14.64
2019-03-31T05:20:32.224Z,15.43
2019-03-31T05:23:05.035Z,16.19
2019-03-31T05:25:38.016Z,16.97
2019-03-31T05:28:10.827Z,17.74
2019-03-31T05:30:43.604Z,18.57
2019-03-31T05:33:16.513Z,19.41
2019-03-31T05:35:50.982Z,20.20
2019-03-31T05:38:23.760Z,21.04
2019-03-31T05:40:56.552Z,21.94
2019-03-31T05:43:29.406Z,22.83
2019-03-31T05:46:02.535Z,23.66
2019-03-31T05:48:35.350Z,24.43
2019-03-31T05:51:09.283Z,25.28
2019-03-31T05:53:42.084Z,26.05
2019-03-31T05:56:14.909Z,26.83
2019-03-31T05:58:47.702Z,27.63
2019-03-31T06:01:20.534Z,28.38
2019-03-31T06:03:53.392Z,29.19
2019-03-31T06:06:26.204Z,29.99
2019-03-31T06:08:59.032Z,30.85
2019-03-31T06:11:31.970Z,31.75
2019-03-31T06:14:04.796Z,32.48
2019-03-31T06:16:37.722Z,33.31
2019-03-31T06:19:11.105Z,33.83
2019-03-31T06:21:44.018Z,34.59
2019-03-31T06:24:16.966Z,35.40
2019-03-31T06:26:49.864Z,36.23
2019-03-31T06:29:22.624Z,36.92
2019-03-31T06:31:55.565Z,37.75
2019-03-31T06:34:29.548Z,38.89
2019-03-31T06:37:02.387Z,39.58
2019-03-31T06:39:35.286Z,40.04
2019-03-31T06:42:08.113Z,40.45
2019-03-31T06:44:41.402Z,40.83
2019-03-31T06:47:14.373Z,40.91
2019-03-31T06:49:47.298Z,41.51
2019-03-31T06:52:20.158Z,42.39
2019-03-31T06:54:52.982Z,43.38
2019-03-31T06:57:25.970Z,43.83
2019-03-31T07:00:01.701Z,44.38
2019-03-31T07:02:34.571Z,44.55
2019-03-31T07:05:07.891Z,45.00
2019-03-31T07:07:41.333Z,45.81
2019-03-31T07:10:14.973Z,46.46
2019-03-31T07:12:49.763Z,46.84
2019-03-31T07:15:22.532Z,46.79
2019-03-31T07:17:55.425Z,47.30
2019-03-31T07:20:28.451Z,47.87
2019-03-31T07:23:01.334Z,48.21
2019-03-31T07:25:37.056Z,48.60
2019-03-31T07:28:08.876Z,49.30
2019-03-31T07:30:41.734Z,50.07
2019-03-31T07:33:16.199Z,50.77
2019-03-31T07:35:48.995Z,51.55
2019-03-31T07:38:22.090Z,51.90
2019-03-31T07:40:55.415Z,52.55
2019-03-31T07:43:28.302Z,53.51
2019-03-31T07:46:01.202Z,54.46
2019-03-31T07:48:34.130Z,55.56
2019-03-31T07:51:06.934Z,56.13
2019-03-31T07:53:39.863Z,56.84
2019-03-31T07:56:15.975Z,57.58
2019-03-31T07:58:47.342Z,58.06
2019-03-31T08:01:20.158Z,58.90
2019-03-31T08:03:53.085Z,59.01
2019-03-31T08:06:26.052Z,59.53
2019-03-31T08:08:58.894Z,60.11
2019-03-31T08:11:32.180Z,60.95
2019-03-31T08:14:04.992Z,60.88
2019-03-31T08:16:37.864Z,61.62
2019-03-31T08:19:10.888Z,62.13
2019-03-31T08:21:43.801Z,62.68
2019-03-31T08:24:16.747Z,63.01
2019-03-31T08:26:49.641Z,63.73
2019-03-31T08:29:24.252Z,64.54
2019-03-31T08:31:57.178Z,64.51
2019-03-31T08:34:29.984Z,64.73
2019-03-31T08:37:02.798Z,64.88
2019-03-31T08:39:35.664Z,65.65
2019-03-31T08:42:09.684Z,66.26
2019-03-31T08:44:42.658Z,66.12
2019-03-31T08:47:15.515Z,66.29
2019-03-31T08:49:48.348Z,66.14
2019-03-31T08:52:21.486Z,65.92
2019-03-31T08:54:54.688Z,65.68
2019-03-31T08:57:27.501Z,66.32
2019-03-31T09:00:01.394Z,66.81
2019-03-31T09:02:35.617Z,67.19
2019-03-31T09:05:10.253Z,67.32
2019-03-31T09:07:43.185Z,67.07
2019-03-31T09:10:16.280Z,66.95
2019-03-31T09:12:49.143Z,66.91
2019-03-31T09:15:22.359Z,66.79
2019-03-31T09:17:55.131Z,66.63
2019-03-31T09:20:27.912Z,66.81
2019-03-31T09:23:01.028Z,67.59
2019-03-31T09:25:36.059Z,68.24
2019-03-31T09:28:09.077Z,68.95
2019-03-31T09:30:42.140Z,69.68
2019-03-31T09:33:15.023Z,70.59
2019-03-31T09:35:47.885Z,70.91
2019-03-31T09:38:20.722Z,70.79
2019-03-31T09:40:53.700Z,71.20
2019-03-31T09:43:26.439Z,71.19
2019-03-31T09:46:00.828Z,71.48
2019-03-31T09:48:33.675Z,71.84
2019-03-31T09:51:07.617Z,72.08
2019-03-31T09:53:42.333Z,72.58
2019-03-31T09:56:16.963Z,72.94
2019-03-31T09:58:51.602Z,73.00
2019-03-31T10:01:24.428Z,73.02
2019-03-31T10:03:57.210Z,73.35
2019-03-31T10:06:30.865Z,72.85
2019-03-31T10:09:04.538Z,72.28
2019-03-31T10:11:37.496Z,72.05
2019-03-31T10:14:10.324Z,72.38
2019-03-31T10:16:43.137Z,72.44
2019-03-31T10:19:15.968Z,72.34
2019-03-31T10:21:48.898Z,72.59
2019-03-31T10:24:22.087Z,72.13
2019-03-31T10:26:54.954Z,71.72
2019-03-31T10:29:27.860Z,71.91
2019-03-31T10:32:00.741Z,71.66
2019-03-31T10:34:33.541Z,71.63
2019-03-31T10:37:06.336Z,71.79
2019-03-31T10:39:39.256Z,72.21
2019-03-31T10:42:12.046Z,71.69
2019-03-31T10:44:44.938Z,71.73
2019-03-31T10:47:17.830Z,71.43
2019-03-31T10:49:51.022Z,70.50
2019-03-31T10:52:23.985Z,70.39
2019-03-31T10:54:56.948Z,67.24
2019-03-31T10:57:29.735Z,67.87
2019-03-31T11:00:02.780Z,68.40
2019-03-31T11:02:35.760Z,68.18
2019-03-31T11:05:08.882Z,68.32
2019-03-31T11:07:41.922Z,65.69
2019-03-31T11:10:14.841Z,66.01
2019-03-31T11:12:50.809Z,65.91
2019-03-31T11:15:23.886Z,62.13
2019-03-31T11:17:56.665Z,62.44
2019-03-31T11:20:29.584Z,62.94
2019-03-31T11:23:18.280Z,61.88
2019-03-31T11:25:51.577Z,61.68
2019-03-31T11:28:27.245Z,59.20
2019-03-31T11:31:00.044Z,53.64
2019-03-31T11:33:32.891Z,48.83
2019-03-31T11:36:05.718Z,45.81
2019-03-31T11:38:38.673Z,45.09
2019-03-31T11:41:11.458Z,42.06
2019-03-31T11:43:44.327Z,42.89
2019-03-31T11:46:19.857Z,44.86
2019-03-31T11:48:52.725Z,44.17
2019-03-31T11:51:25.583Z,41.37
2019-03-31T11:53:58.359Z,38.81
2019-03-31T11:56:31.157Z,36.72
2019-03-31T11:59:03.920Z,35.10
2019-03-31T12:01:37.882Z,33.68
2019-03-31T12:04:10.761Z,32.60
2019-03-31T12:06:44.665Z,31.84
2019-03-31T12:09:17.736Z,31.35
2019-03-31T12:11:50.606Z,30.91
2019-03-31T12:14:23.399Z,30.56
2019-03-31T12:16:56.378Z,30.25
2019-03-31T12:19:29.160Z,30.11
2019-03-31T12:22:02.126Z,30.04
2019-03-31T12:24:35.028Z,29.65
2019-03-31T12:27:07.963Z,29.18
2019-03-31T12:29:41.366Z,28.69
2019-03-31T12:32:15.352Z,27.96
2019-03-31T12:34:48.462Z,27.33
2019-03-31T12:37:21.363Z,26.90
2019-03-31T12:39:54.121Z,26.86
2019-03-31T12:42:26.958Z,26.66
2019-03-31T12:45:00.742Z,26.34
2019-03-31T12:47:35.452Z,26.09
2019-03-31T12:50:09.043Z,25.84
2019-03-31T12:52:47.454Z,25.60
2019-03-31T12:55:18.020Z,25.60
2019-03-31T12:57:52.053Z,25.67
2019-03-31T13:00:25.229Z,25.71
2019-03-31T13:02:58.131Z,25.66
2019-03-31T13:05:31.321Z,25.41
2019-03-31T13:08:04.249Z,25.06
2019-03-31T13:10:37.372Z,24.77
2019-03-31T13:13:10.157Z,24.61
2019-03-31T13:15:43.077Z,24.85
2019-03-31T13:18:16.405Z,25.21
2019-03-31T13:20:49.550Z,25.44
2019-03-31T13:23:22.332Z,25.60
2019-03-31T13:25:55.144Z,25.62
2019-03-31T13:28:27.925Z,25.46
2019-03-31T13:31:00.819Z,25.35
2019-03-31T13:33:33.740Z,25.25
2019-03-31T13:36:06.605Z,25.19
2019-03-31T13:38:39.493Z,25.17
2019-03-31T13:41:12.332Z,25.26
2019-03-31T13:43:45.131Z,25.16
2019-03-31T13:46:19.087Z,24.85
2019-03-31T13:48:52.044Z,24.48
2019-03-31T13:51:25.013Z,24.22
2019-03-31T13:53:57.933Z,24.01
2019-03-31T13:56:31.150Z,23.79
2019-03-31T13:59:08.908Z,23.54
2019-03-31T14:01:39.968Z,23.31
2019-03-31T14:04:12.777Z,23.23
2019-03-31T14:06:45.855Z,22.91
2019-03-31T14:09:18.836Z,22.71
2019-03-31T14:11:52.034Z,22.42
2019-03-31T14:14:25.085Z,22.22
2019-03-31T14:16:59.962Z,22.05
2019-03-31T14:19:32.872Z,21.96
2019-03-31T14:22:05.896Z,21.88
2019-03-31T14:24:38.771Z,21.75
2019-03-31T14:27:11.513Z,21.78
2019-03-31T14:29:44.387Z,21.86
2019-03-31T14:32:17.223Z,22.07
2019-03-31T14:34:50.004Z,22.22
2019-03-31T14:37:22.806Z,22.26
2019-03-31T14:39:55.708Z,22.20
2019-03-31T14:42:28.784Z,21.84
2019-03-31T14:45:01.897Z,21.61
2019-03-31T14:47:34.792Z,21.50
2019-03-31T14:50:08.438Z,21.46
2019-03-31T14:52:42.525Z,21.36
2019-03-31T14:55:15.445Z,21.23
2019-03-31T14:57:48.333Z,21.02
2019-03-31T15:00:21.412Z,20.69
2019-03-31T15:02:54.754Z,20.48
2019-03-31T15:05:27.632Z,20.29
2019-03-31T15:08:01.762Z,20.15
2019-03-31T15:10:36.227Z,20.05
2019-03-31T15:13:09.188Z,20.02
2019-03-31T15:15:42.035Z,20.13
2019-03-31T15:18:14.887Z,20.20
2019-03-31T15:20:48.937Z,20.17
2019-03-31T15:23:28.903Z,20.34
2019-03-31T15:25:59.135Z,20.31
2019-03-31T15:28:32.033Z,20.15
2019-03-31T15:31:04.816Z,19.96
2019-03-31T15:33:37.581Z,19.82
2019-03-31T15:36:11.197Z,19.70
2019-03-31T15:38:43.980Z,19.57
2019-03-31T15:41:21.317Z,19.42
2019-03-31T15:43:51.309Z,19.32
2019-03-31T15:46:24.785Z,19.20
2019-03-31T15:48:57.852Z,19.12
2019-03-31T15:51:31.201Z,19.02
2019-03-31T15:54:04.200Z,18.91
2019-03-31T15:56:36.968Z,18.89
2019-03-31T15:59:09.856Z,18.73
2019-03-31T16:01:44.542Z,18.63
2019-03-31T16:04:17.509Z,18.53
2019-03-31T16:06:50.280Z,18.44
2019-03-31T16:09:24.368Z,18.32
2019-03-31T16:11:56.586Z,18.22
2019-03-31T16:14:28.598Z,18.13
2019-03-31T16:17:03.516Z,18.04
2019-03-31T16:19:35.603Z,17.94
2019-03-31T16:22:07.748Z,17.83
2019-03-31T16:24:43.527Z,17.67
2019-03-31T16:27:16.628Z,17.55
2019-03-31T16:29:48.875Z,17.36
2019-03-31T16:32:21.328Z,17.24
2019-03-31T16:34:53.513Z,17.11
2019-03-31T16:37:25.505Z,16.96
2019-03-31T16:39:57.546Z,16.86
2019-03-31T16:42:30.796Z,16.73
2019-03-31T16:45:02.770Z,16.61
2019-03-31T16:47:36.624Z,16.43
2019-03-31T16:50:10.784Z,16.35
2019-03-31T16:52:42.885Z,16.20
2019-03-31T16:55:15.086Z,16.08
2019-03-31T16:57:48.601Z,15.97
2019-03-31T17:00:21.220Z,15.82
2019-03-31T17:02:53.532Z,15.74
2019-03-31T17:05:25.775Z,15.65
2019-03-31T17:07:57.730Z,15.55
2019-03-31T17:10:29.954Z,15.47
2019-03-31T17:13:01.947Z,15.32
2019-03-31T17:15:34.401Z,15.22
2019-03-31T17:18:06.574Z,15.16
2019-03-31T17:20:38.680Z,15.04
2019-03-31T17:23:10.956Z,14.90
2019-03-31T17:25:44.834Z,14.77
2019-03-31T17:28:16.864Z,14.66
2019-03-31T17:30:49.056Z,14.59
2019-03-31T17:33:21.414Z,14.50
2019-03-31T17:35:53.458Z,14.42
2019-03-31T17:38:25.624Z,14.35
2019-03-31T17:40:57.596Z,14.25
2019-03-31T17:43:30.280Z,14.14
2019-03-31T17:46:02.352Z,14.08
2019-03-31T17:48:34.313Z,13.98
2019-03-31T17:51:06.356Z,13.88
2019-03-31T17:53:38.715Z,13.80
2019-03-31T17:56:10.821Z,13.71
2019-03-31T17:58:42.829Z,13.58
2019-03-31T18:01:15.094Z,13.54
2019-03-31T18:03:47.138Z,13.48
2019-03-31T18:06:19.233Z,13.42
2019-03-31T18:08:51.216Z,13.38
2019-03-31T18:11:23.316Z,13.30
2019-03-31T18:13:57.793Z,13.23
2019-03-31T18:16:30.332Z,13.19
2019-03-31T18:19:02.429Z,13.11
2019-03-31T18:21:34.690Z,13.03
2019-03-31T18:24:06.892Z,13.00
2019-03-31T18:26:39.054Z,12.95
2019-03-31T18:29:11.366Z,12.88
2019-03-31T18:31:43.371Z,12.86
2019-03-31T18:34:15.605Z,12.74
2019-03-31T18:36:47.590Z,12.74
2019-03-31T18:39:19.703Z,12.64
2019-03-31T18:41:51.860Z,12.58
2019-03-31T18:44:23.955Z,12.52
2019-03-31T18:46:55.928Z,12.45
2019-03-31T18:49:28.017Z,12.36
2019-03-31T18:52:00.516Z,12.27
2019-03-31T18:54:46.184Z,12.18
2019-03-31T18:57:29.822Z,12.10
2019-03-31T19:00:19.767Z,11.98
2019-03-31T19:03:12.832Z,11.92
2019-03-31T19:06:11.169Z,11.83
2019-03-31T19:09:02.023Z,11.78
2019-03-31T19:11:44.310Z,11.67
2019-03-31T19:14:33.952Z,11.62
2019-03-31T19:17:23.516Z,11.47
2019-03-31T19:20:20.540Z,11.45
2019-03-31T19:23:04.385Z,11.31
2019-03-31T19:26:04.400Z,11.24
2019-03-31T19:28:58.353Z,11.16
2019-03-31T19:31:50.121Z,11.06
2019-03-31T19:34:43.766Z,10.94
2019-03-31T19:37:37.399Z,10.93
2019-03-31T19:40:32.712Z,10.85
2019-03-31T19:43:22.103Z,10.76
2019-03-31T19:46:06.364Z,10.74
2019-03-31T19:48:43.432Z,10.68
2019-03-31T19:51:49.462Z,10.65
2019-03-31T19:54:39.205Z,10.59
2019-03-31T19:57:45.507Z,10.57
2019-03-31T20:00:39.111Z,10.54
2019-03-31T20:03:32.553Z,10.40
2019-03-31T20:06:13.237Z,10.37
2019-03-31T20:08:59.604Z,10.39
2019-03-31T20:11:43.190Z,10.29
2019-03-31T20:14:30.554Z,10.24
2019-03-31T20:17:13.062Z,10.18
2019-03-31T20:20:03.346Z,10.11
2019-03-31T20:22:50.586Z,10.02
2019-03-31T20:26:00.142Z,9.89
2019-03-31T20:28:49.832Z,9.77
2019-03-31T20:31:39.489Z,9.74
2019-03-31T20:34:18.154Z,9.63
2019-03-31T20:37:16.959Z,9.60
2019-03-31T20:40:06.675Z,9.54
2019-03-31T20:42:49.494Z,9.47
2019-03-31T20:45:21.526Z,9.41
2019-03-31T20:47:53.670Z,9.33
2019-03-31T20:50:25.759Z,9.29
2019-03-31T20:52:57.829Z,9.24
2019-03-31T20:55:30.427Z,9.20
2019-03-31T20:58:02.442Z,9.15
2019-03-31T21:00:34.426Z,9.08
2019-03-31T21:03:06.458Z,9.01
2019-03-31T21:05:38.542Z,8.94
2019-03-31T21:08:10.656Z,8.89
2019-03-31T21:10:42.622Z,8.89
2019-03-31T21:13:14.632Z,8.82
2019-03-31T21:15:47.574Z,8.81
2019-03-31T21:18:19.671Z,8.79
2019-03-31T21:20:51.655Z,8.77
2019-03-31T21:23:24.312Z,8.73
2019-03-31T21:25:56.417Z,8.74
2019-03-31T21:28:28.527Z,8.65
2019-03-31T21:31:00.948Z,8.66
2019-03-31T21:33:34.407Z,8.62
2019-03-31T21:36:06.469Z,8.59
2019-03-31T21:38:38.531Z,8.53
2019-03-31T21:41:14.013Z,8.52
2019-03-31T21:43:44.944Z,8.48
2019-03-31T21:46:16.901Z,8.43
2019-03-31T21:48:48.928Z,8.36
2019-03-31T21:51:21.103Z,8.31
2019-03-31T21:53:53.331Z,8.29
2019-03-31T21:56:25.399Z,8.24
2019-03-31T21:58:59.231Z,8.20
2019-03-31T22:01:33.119Z,8.17
2019-03-31T22:04:06.485Z,8.12
2019-03-31T22:06:38.655Z,8.08
2019-03-31T22:09:12.033Z,8.05
2019-03-31T22:11:44.113Z,8.05
2019-03-31T22:14:18.449Z,8.06
2019-03-31T22:16:50.406Z,8.10
2019-03-31T22:19:24.249Z,8.18
2019-03-31T22:21:56.220Z,8.31
2019-03-31T22:24:28.382Z,8.47
2019-03-31T22:27:00.735Z,8.61
2019-03-31T22:29:32.857Z,8.74
2019-03-31T22:32:04.955Z,8.83
2019-03-31T22:34:36.949Z,8.89
2019-03-31T22:37:09.095Z,8.98
2019-03-31T22:42:01.773Z,9.06
2019-03-31T22:44:33.862Z,9.04
2019-03-31T22:47:05.870Z,9.00
2019-03-31T22:49:37.882Z,9.01
2019-03-31T22:52:10.268Z,8.98
2019-03-31T22:54:42.337Z,8.99
2019-03-31T22:57:14.377Z,8.99
2019-03-31T22:59:46.503Z,9.01
2019-03-31T23:02:19.039Z,9.03
2019-03-31T23:04:51.015Z,9.03
2019-03-31T23:07:23.029Z,9.03
2019-03-31T23:09:55.134Z,9.02
2019-03-31T23:12:27.161Z,8.97
2019-03-31T23:14:59.133Z,8.94
2019-03-31T23:17:31.169Z,8.94
2019-03-31T23:20:05.192Z,8.91
2019-03-31T23:22:37.150Z,8.90
2019-03-31T23:25:09.207Z,8.90
2019-03-31T23:27:41.457Z,8.84
2019-03-31T23:30:13.830Z,8.79
2019-03-31T23:32:45.918Z,8.76
2019-03-31T23:35:17.889Z,8.72
2019-03-31T23:37:49.980Z,8.63
2019-03-31T23:40:22.200Z,8.55
2019-03-31T23:42:54.699Z,8.50
2019-03-31T23:45:26.697Z,8.43
2019-03-31T23:47:58.705Z,8.47
2019-03-31T23:50:31.306Z,8.36
2019-03-31T23:53:03.312Z,8.26
2019-03-31T23:55:36.988Z,8.17
2019-03-31T23:58:09.007Z,8.06
